Time;durP1;ratioP1;P1;durP2;ratioP2;P2;SDS_P1;SDS_P2;PMS_P1;PMS_P2;Temp;Humidity;BMP_temperature;BMP_pressure;BME280_temperature;BME280_humidity;BME280_pressure;Samples;Min_cycle;Max_cycle;Signal;HPM_P1;HPM_P2
2022/12/01 00:02:52;;;;;;;76.88;23.60;;;;;;;;;;6266511;28;20044;-61
2022/12/01 00:06:10;;;;;;;74.55;23.63;;;;;;;;;;6266354;28;20074;-62
2022/12/01 00:12:30;;;;;;;66.63;21.40;;;;;;;;;;6265950;28;20098;-61
2022/12/01 00:15:35;;;;;;;71.32;22.63;;;;;;;;;;6266035;28;20053;-67
2022/12/01 00:18:36;;;;;;;65.97;22.90;;;;;;;;;;6261403;28;20048;-61
2022/12/01 00:21:36;;;;;;;65.97;22.10;;;;;;;;;;6251042;28;20049;-61
2022/12/01 00:24:37;;;;;;;64.75;21.70;;;;;;;;;;6251149;28;20041;-62
2022/12/01 00:27:38;;;;;;;64.57;20.52;;;;;;;;;;6253794;28;20041;-61
2022/12/01 00:30:39;;;;;;;59.75;19.27;;;;;;;;;;6248112;28;20093;-65
2022/12/01 00:33:39;;;;;;;66.97;20.85;;;;;;;;;;6249694;28;20976;-61
2022/12/01 00:36:40;;;;;;;66.50;20.15;;;;;;;;;;6248757;28;20063;-62
2022/12/01 00:39:41;;;;;;;58.95;20.08;;;;;;;;;;6252509;28;20399;-61
2022/12/01 00:42:41;;;;;;;56.10;18.63;;;;;;;;;;6260888;28;20052;-61
2022/12/01 00:45:42;;;;;;;46.83;16.30;;;;;;;;;;6257960;28;20696;-68
2022/12/01 00:48:43;;;;;;;54.38;17.65;;;;;;;;;;6243018;28;20045;-61
2022/12/01 00:51:43;;;;;;;53.42;16.23;;;;;;;;;;6253644;28;20056;-62
2022/12/01 00:54:44;;;;;;;57.05;17.30;;;;;;;;;;6254825;28;20073;-61
2022/12/01 00:57:45;;;;;;;60.33;17.90;;;;;;;;;;6249739;28;20053;-61
2022/12/01 01:00:46;;;;;;;57.22;17.52;;;;;;;;;;6251473;28;20072;-67
2022/12/01 01:03:46;;;;;;;54.53;16.67;;;;;;;;;;6248410;28;20045;-61
2022/12/01 01:06:47;;;;;;;56.35;17.65;;;;;;;;;;6240574;28;20045;-61
2022/12/01 01:09:47;;;;;;;58.80;19.40;;;;;;;;;;6261205;28;20055;-62
2022/12/01 01:12:48;;;;;;;52.88;16.63;;;;;;;;;;6257475;28;20045;-62
2022/12/01 01:16:06;;;;;;;61.28;17.95;;;;;;;;;;6265813;28;20045;-61
2022/12/01 01:19:07;;;;;;;59.40;17.90;;;;;;;;;;6255296;28;20067;-62
2022/12/01 01:22:07;;;;;;;58.83;18.50;;;;;;;;;;6252655;28;20042;-62
2022/12/01 01:25:08;;;;;;;56.78;17.85;;;;;;;;;;6256991;28;20041;-62
2022/12/01 01:28:08;;;;;;;56.50;19.38;;;;;;;;;;6254037;28;20049;-61
2022/12/01 01:31:12;;;;;;;56.38;18.95;;;;;;;;;;6260842;28;20408;-62
2022/12/01 01:34:13;;;;;;;63.72;20.52;;;;;;;;;;6263147;28;20048;-62
2022/12/01 01:37:13;;;;;;;61.38;19.25;;;;;;;;;;6258933;28;20055;-62
2022/12/01 01:40:14;;;;;;;57.80;18.67;;;;;;;;;;6271327;28;20140;-61
2022/12/01 01:43:17;;;;;;;56.55;18.25;;;;;;;;;;6261574;28;20489;-62
2022/12/01 01:46:29;;;;;;;57.92;19.50;;;;;;;;;;6254614;28;20423;-65
2022/12/01 01:49:30;;;;;;;57.92;19.05;;;;;;;;;;6256328;28;20055;-61
2022/12/01 01:52:32;;;;;;;63.17;20.67;;;;;;;;;;6250962;28;20045;-62
2022/12/01 01:55:33;;;;;;;66.03;22.48;;;;;;;;;;6250231;28;20102;-61
2022/12/01 01:58:36;;;;;;;66.43;21.00;;;;;;;;;;6252687;28;20041;-69
2022/12/01 02:01:36;;;;;;;59.08;20.38;;;;;;;;;;6253675;28;20049;-61
2022/12/01 02:04:41;;;;;;;56.78;19.67;;;;;;;;;;6252328;28;20041;-61
2022/12/01 02:07:41;;;;;;;59.72;20.08;;;;;;;;;;6253090;28;20049;-66
2022/12/01 02:11:09;;;;;;;55.97;18.83;;;;;;;;;;6253168;28;20064;-62
2022/12/01 02:14:46;;;;;;;63.80;20.67;;;;;;;;;;6243609;28;20116;-61
2022/12/01 02:18:02;;;;;;;70.30;20.67;;;;;;;;;;6250130;28;20492;-61
2022/12/01 02:21:31;;;;;;;60.50;19.73;;;;;;;;;;6250371;28;20068;-67
2022/12/01 02:25:09;;;;;;;64.18;22.50;;;;;;;;;;6252807;28;20072;-61
2022/12/01 02:28:19;;;;;;;65.97;20.58;;;;;;;;;;6250179;28;20052;-63
2022/12/01 02:31:37;;;;;;;61.30;21.65;;;;;;;;;;6251464;28;20063;-61
2022/12/01 02:34:53;;;;;;;74.50;22.95;;;;;;;;;;6250899;28;20048;-65
2022/12/01 02:38:08;;;;;;;62.60;21.90;;;;;;;;;;6249426;28;20128;-62
2022/12/01 02:41:12;;;;;;;66.05;23.13;;;;;;;;;;6252694;28;20072;-63
2022/12/01 02:44:28;;;;;;;59.20;19.55;;;;;;;;;;6251113;28;20927;-61
2022/12/01 02:47:31;;;;;;;63.22;19.90;;;;;;;;;;6250368;28;20037;-62
2022/12/01 02:50:34;;;;;;;68.43;19.45;;;;;;;;;;6244945;28;20046;-61
2022/12/01 02:53:35;;;;;;;61.58;19.90;;;;;;;;;;6246065;28;20049;-62
2022/12/01 02:56:36;;;;;;;62.58;20.83;;;;;;;;;;6269391;28;20496;-61
2022/12/01 02:59:38;;;;;;;65.57;21.13;;;;;;;;;;6251969;28;20040;-68
2022/12/01 03:02:55;;;;;;;71.30;20.98;;;;;;;;;;6269413;28;20077;-63
2022/12/01 03:06:40;;;;;;;69.47;21.17;;;;;;;;;;6253473;28;20461;-61
2022/12/01 03:10:02;;;;;;;65.35;22.08;;;;;;;;;;6252450;28;20049;-61
2022/12/01 03:13:22;;;;;;;54.78;19.27;;;;;;;;;;6251463;28;20477;-62
2022/12/01 03:16:38;;;;;;;69.25;25.38;;;;;;;;;;6255807;28;20084;-64
2022/12/01 03:19:45;;;;;;;69.32;21.60;;;;;;;;;;6249497;28;20055;-61
2022/12/01 03:22:52;;;;;;;68.53;24.15;;;;;;;;;;6252974;28;20055;-62
2022/12/01 03:25:55;;;;;;;69.32;23.10;;;;;;;;;;6261335;28;20963;-67
2022/12/01 03:29:05;;;;;;;66.55;21.80;;;;;;;;;;6250926;28;20049;-61
2022/12/01 03:32:09;;;;;;;63.95;22.20;;;;;;;;;;6254454;28;20049;-63
2022/12/01 03:35:15;;;;;;;63.88;20.73;;;;;;;;;;6264136;28;20051;-64
2022/12/01 03:38:26;;;;;;;62.72;21.15;;;;;;;;;;6252219;28;20146;-62
2022/12/01 03:41:34;;;;;;;62.40;20.75;;;;;;;;;;6265685;28;20052;-62
2022/12/01 03:44:42;;;;;;;62.95;21.05;;;;;;;;;;6246522;28;20514;-62
2022/12/01 03:47:43;;;;;;;70.20;26.50;;;;;;;;;;6250758;28;20049;-62
2022/12/01 03:50:53;;;;;;;60.17;21.38;;;;;;;;;;6264432;28;20452;-61
2022/12/01 03:54:04;;;;;;;62.88;19.88;;;;;;;;;;6256366;28;20052;-61
2022/12/01 03:57:10;;;;;;;63.05;19.52;;;;;;;;;;6256010;28;20045;-62
2022/12/01 04:00:13;;;;;;;56.50;19.85;;;;;;;;;;6253970;28;20060;-66
2022/12/01 04:03:19;;;;;;;64.35;20.55;;;;;;;;;;6244015;28;20055;-62
2022/12/01 04:06:19;;;;;;;60.60;21.58;;;;;;;;;;6251297;28;20114;-62
2022/12/01 04:09:20;;;;;;;69.05;21.65;;;;;;;;;;6253343;28;20054;-61
2022/12/01 04:12:29;;;;;;;58.90;22.17;;;;;;;;;;6255114;28;20765;-61
2022/12/01 04:15:30;;;;;;;59.90;22.02;;;;;;;;;;6263570;28;20048;-68
2022/12/01 04:18:30;;;;;;;64.78;20.23;;;;;;;;;;6252274;28;20687;-66
2022/12/01 04:21:32;;;;;;;67.38;20.45;;;;;;;;;;6267396;28;20061;-61
2022/12/01 04:24:32;;;;;;;66.80;22.05;;;;;;;;;;6255177;28;20095;-62
2022/12/01 04:27:33;;;;;;;63.75;22.42;;;;;;;;;;6251644;28;20034;-61
2022/12/01 04:30:34;;;;;;;60.03;18.95;;;;;;;;;;6262529;28;20048;-61
2022/12/01 04:33:34;;;;;;;53.72;17.73;;;;;;;;;;6260711;28;20052;-63
2022/12/01 04:36:35;;;;;;;60.45;19.85;;;;;;;;;;6252578;28;20041;-61
2022/12/01 04:39:36;;;;;;;57.78;19.92;;;;;;;;;;6252585;28;20041;-62
2022/12/01 04:42:36;;;;;;;53.35;19.00;;;;;;;;;;6248826;28;20148;-61
2022/12/01 04:45:37;;;;;;;53.67;18.33;;;;;;;;;;6248084;28;20484;-62
2022/12/01 04:48:38;;;;;;;56.15;20.13;;;;;;;;;;6249421;28;20049;-61
2022/12/01 04:51:39;;;;;;;53.40;17.42;;;;;;;;;;6255754;28;20052;-62
2022/12/01 04:54:39;;;;;;;46.88;16.63;;;;;;;;;;6257002;28;20048;-63
2022/12/01 04:57:40;;;;;;;50.95;15.90;;;;;;;;;;6256917;28;20050;-62
2022/12/01 05:00:40;;;;;;;56.20;18.42;;;;;;;;;;6262672;28;20068;-62
2022/12/01 05:03:44;;;;;;;47.72;16.58;;;;;;;;;;6268886;28;20132;-62
2022/12/01 05:06:44;;;;;;;49.17;17.33;;;;;;;;;;6260912;28;20044;-62
2022/12/01 05:09:45;;;;;;;46.45;17.50;;;;;;;;;;6263983;28;20572;-63
2022/12/01 05:12:45;;;;;;;47.50;17.02;;;;;;;;;;6254758;28;20060;-61
2022/12/01 05:15:46;;;;;;;59.15;18.52;;;;;;;;;;6252787;28;20400;-61
2022/12/01 05:20:55;;;;;;;43.80;15.18;;;;;;;;;;6262465;28;20052;-61
2022/12/01 05:22:13;;;;;;;48.72;16.70;;;;;;;;;;6253351;28;20515;-62
2022/12/01 05:25:13;;;;;;;53.92;18.48;;;;;;;;;;6260348;28;20049;-61
2022/12/01 05:28:14;;;;;;;55.40;18.00;;;;;;;;;;6249366;28;20057;-61
2022/12/01 05:31:14;;;;;;;50.00;17.92;;;;;;;;;;6256092;28;20412;-62
2022/12/01 05:34:15;;;;;;;49.70;16.35;;;;;;;;;;6255613;28;20053;-67
2022/12/01 05:37:16;;;;;;;54.80;17.77;;;;;;;;;;6252978;28;20057;-61
2022/12/01 05:40:17;;;;;;;50.05;18.27;;;;;;;;;;6261508;28;20480;-61
2022/12/01 05:43:19;;;;;;;48.85;17.30;;;;;;;;;;6270513;28;20052;-61
2022/12/01 05:46:20;;;;;;;50.97;17.73;;;;;;;;;;6254756;28;20060;-61
2022/12/01 05:49:20;;;;;;;49.25;17.27;;;;;;;;;;6253782;28;20049;-62
2022/12/01 05:52:21;;;;;;;46.40;16.33;;;;;;;;;;6252825;28;20123;-65
2022/12/01 05:55:21;;;;;;;41.97;14.18;;;;;;;;;;6264203;28;20045;-69
2022/12/01 05:58:22;;;;;;;42.92;15.65;;;;;;;;;;6268588;28;20071;-61
2022/12/01 06:01:22;;;;;;;45.30;15.60;;;;;;;;;;6263203;28;20068;-61
2022/12/01 06:04:23;;;;;;;54.58;18.25;;;;;;;;;;6251014;28;20409;-61
2022/12/01 06:07:24;;;;;;;50.35;19.27;;;;;;;;;;6251756;28;20041;-62
2022/12/01 06:10:25;;;;;;;56.60;18.40;;;;;;;;;;6253993;28;20198;-62
2022/12/01 06:13:25;;;;;;;48.28;16.45;;;;;;;;;;6253266;28;20037;-61
2022/12/01 06:16:26;;;;;;;52.63;18.50;;;;;;;;;;6256269;28;20044;-61
2022/12/01 06:19:27;;;;;;;55.03;17.92;;;;;;;;;;6247746;28;20064;-62
2022/12/01 06:22:27;;;;;;;64.47;22.05;;;;;;;;;;6256162;28;20045;-61
2022/12/01 06:25:28;;;;;;;55.33;20.13;;;;;;;;;;6250738;28;20049;-62
2022/12/01 06:28:29;;;;;;;49.95;16.45;;;;;;;;;;6253235;28;20146;-65
2022/12/01 06:31:29;;;;;;;55.80;17.85;;;;;;;;;;6260531;28;20056;-60
2022/12/01 06:34:30;;;;;;;60.70;21.50;;;;;;;;;;6254459;28;20047;-60
2022/12/01 06:37:31;;;;;;;56.13;22.92;;;;;;;;;;6249814;28;20041;-60
2022/12/01 06:40:31;;;;;;;59.47;21.30;;;;;;;;;;6254359;28;20610;-62
2022/12/01 06:43:35;;;;;;;56.83;17.60;;;;;;;;;;6247603;28;20095;-61
2022/12/01 06:46:36;;;;;;;45.83;15.30;;;;;;;;;;6250397;28;20045;-62
2022/12/01 06:49:37;;;;;;;49.25;15.65;;;;;;;;;;6252113;28;20563;-62
2022/12/01 06:52:37;;;;;;;53.85;17.13;;;;;;;;;;6256672;28;20492;-61
2022/12/01 06:55:38;;;;;;;51.72;16.20;;;;;;;;;;6261270;28;20040;-62
2022/12/01 06:58:39;;;;;;;46.05;15.82;;;;;;;;;;6249903;28;20075;-62
2022/12/01 07:01:39;;;;;;;45.55;15.48;;;;;;;;;;6252870;28;20045;-61
2022/12/01 07:04:40;;;;;;;41.30;14.48;;;;;;;;;;6251869;28;20037;-61
2022/12/01 07:07:40;;;;;;;50.10;17.25;;;;;;;;;;6250715;28;20060;-61
2022/12/01 07:10:41;;;;;;;51.97;16.48;;;;;;;;;;6261001;28;20049;-61
2022/12/01 07:13:45;;;;;;;50.83;15.65;;;;;;;;;;6253077;28;20052;-61
2022/12/01 07:16:46;;;;;;;44.83;14.95;;;;;;;;;;6254019;28;20055;-61
2022/12/01 07:19:47;;;;;;;49.38;15.20;;;;;;;;;;6268928;28;20120;-61
2022/12/01 07:22:47;;;;;;;45.42;14.50;;;;;;;;;;6254214;28;20044;-61
2022/12/01 07:25:57;;;;;;;58.08;17.25;;;;;;;;;;6259792;28;20044;-62
2022/12/01 07:28:57;;;;;;;48.97;15.43;;;;;;;;;;6247102;28;20404;-61
2022/12/01 07:31:58;;;;;;;46.17;14.45;;;;;;;;;;6267207;28;20049;-62
2022/12/01 07:34:58;;;;;;;48.15;15.85;;;;;;;;;;6268775;28;20111;-62
2022/12/01 07:37:59;;;;;;;45.03;15.13;;;;;;;;;;6267223;28;20488;-61
2022/12/01 07:41:04;;;;;;;48.42;15.90;;;;;;;;;;6265027;28;20052;-61
2022/12/01 07:44:05;;;;;;;42.63;13.95;;;;;;;;;;6250436;28;20805;-62
2022/12/01 07:47:06;;;;;;;47.90;15.02;;;;;;;;;;6249154;28;20037;-62
2022/12/01 07:50:07;;;;;;;55.72;16.63;;;;;;;;;;6250735;28;20072;-61
2022/12/01 07:53:07;;;;;;;51.97;16.20;;;;;;;;;;6261185;28;20598;-61
2022/12/01 07:56:08;;;;;;;57.42;18.05;;;;;;;;;;6265134;28;20037;-61
2022/12/01 07:59:09;;;;;;;55.08;17.92;;;;;;;;;;6254131;28;20041;-61
2022/12/01 08:02:09;;;;;;;48.40;16.90;;;;;;;;;;6253083;28;20083;-61
2022/12/01 08:05:10;;;;;;;60.85;17.88;;;;;;;;;;6250949;28;20044;-62
2022/12/01 08:08:11;;;;;;;49.05;15.75;;;;;;;;;;6248564;28;20093;-62
2022/12/01 08:11:14;;;;;;;46.40;15.95;;;;;;;;;;6249484;28;20057;-62
2022/12/01 08:14:15;;;;;;;43.28;14.55;;;;;;;;;;6251176;28;20061;-61
2022/12/01 08:17:15;;;;;;;43.85;15.38;;;;;;;;;;6248336;28;20775;-62
2022/12/01 08:20:16;;;;;;;46.67;15.10;;;;;;;;;;6253486;28;20061;-62
2022/12/01 08:23:17;;;;;;;57.38;18.75;;;;;;;;;;6249660;28;20073;-61
2022/12/01 08:26:18;;;;;;;62.33;19.17;;;;;;;;;;6249241;28;20052;-61
2022/12/01 08:29:19;;;;;;;53.40;16.35;;;;;;;;;;6248963;28;20056;-63
2022/12/01 08:32:19;;;;;;;54.30;17.67;;;;;;;;;;6246968;28;20034;-62
2022/12/01 08:35:20;;;;;;;50.60;16.83;;;;;;;;;;6246756;28;20645;-61
2022/12/01 08:38:20;;;;;;;49.53;15.82;;;;;;;;;;6249409;28;20126;-61
2022/12/01 08:41:23;;;;;;;51.20;16.95;;;;;;;;;;6259120;28;20148;-64
2022/12/01 08:44:23;;;;;;;41.90;14.40;;;;;;;;;;6265292;28;20080;-62
2022/12/01 08:47:26;;;;;;;47.85;15.52;;;;;;;;;;6265102;28;20055;-63
2022/12/01 08:50:27;;;;;;;43.97;17.30;;;;;;;;;;6266443;28;20049;-61
2022/12/01 08:53:29;;;;;;;51.42;16.60;;;;;;;;;;6266746;28;20118;-61
2022/12/01 08:56:34;;;;;;;50.10;17.55;;;;;;;;;;6265525;28;20067;-61
2022/12/01 08:59:35;;;;;;;45.92;15.13;;;;;;;;;;6265790;28;20045;-61
2022/12/01 09:02:35;;;;;;;51.75;15.60;;;;;;;;;;6266502;28;20056;-61
2022/12/01 09:05:36;;;;;;;48.40;15.73;;;;;;;;;;6266095;28;20044;-61
2022/12/01 09:08:37;;;;;;;42.17;15.60;;;;;;;;;;6265264;28;20116;-62
2022/12/01 09:11:38;;;;;;;53.72;18.02;;;;;;;;;;6266385;28;20079;-62
2022/12/01 09:14:41;;;;;;;49.72;16.13;;;;;;;;;;6266086;28;20048;-62
2022/12/01 09:17:41;;;;;;;50.63;16.77;;;;;;;;;;6265015;28;20446;-62
2022/12/01 09:20:42;;;;;;;63.28;18.00;;;;;;;;;;6256245;28;20103;-62
2022/12/01 09:23:43;;;;;;;49.03;15.65;;;;;;;;;;6252364;28;20077;-61
2022/12/01 09:26:44;;;;;;;55.63;17.70;;;;;;;;;;6248464;28;20065;-62
2022/12/01 09:29:44;;;;;;;53.22;17.73;;;;;;;;;;6249372;28;20075;-61
2022/12/01 09:32:45;;;;;;;50.97;17.40;;;;;;;;;;6255501;28;20048;-62
2022/12/01 09:35:45;;;;;;;50.70;15.55;;;;;;;;;;6260597;28;20064;-62
2022/12/01 09:38:46;;;;;;;55.47;16.35;;;;;;;;;;6269784;28;20488;-61
2022/12/01 09:41:56;;;;;;;50.83;18.15;;;;;;;;;;6270651;28;20056;-62
2022/12/01 09:45:00;;;;;;;47.17;16.05;;;;;;;;;;6271011;28;20164;-62
2022/12/01 09:48:03;;;;;;;50.10;16.60;;;;;;;;;;6269660;28;20049;-61
2022/12/01 09:51:03;;;;;;;57.92;17.77;;;;;;;;;;6270573;28;20381;-61
2022/12/01 09:54:05;;;;;;;53.35;17.63;;;;;;;;;;6270909;28;20072;-61
2022/12/01 09:57:14;;;;;;;51.90;18.00;;;;;;;;;;6269248;28;20515;-61
2022/12/01 10:00:19;;;;;;;48.25;17.13;;;;;;;;;;6275130;28;20415;-62
2022/12/01 10:03:28;;;;;;;54.90;16.63;;;;;;;;;;6248594;28;20092;-61
2022/12/01 10:06:37;;;;;;;56.75;20.90;;;;;;;;;;6253338;28;20051;-61
2022/12/01 10:09:55;;;;;;;50.83;16.38;;;;;;;;;;6249739;28;20609;-61
2022/12/01 10:12:56;;;;;;;47.63;17.15;;;;;;;;;;6253109;28;20506;-62
2022/12/01 10:16:10;;;;;;;44.78;15.00;;;;;;;;;;6256259;28;20051;-61
2022/12/01 10:19:28;;;;;;;50.30;17.90;;;;;;;;;;6255747;28;20208;-62
2022/12/01 10:22:43;;;;;;;40.95;13.88;;;;;;;;;;6252186;28;20115;-61
2022/12/01 10:25:57;;;;;;;45.67;15.68;;;;;;;;;;6266433;28;20045;-62
2022/12/01 10:29:04;;;;;;;46.75;14.85;;;;;;;;;;6269989;28;20041;-62
2022/12/01 10:32:17;;;;;;;48.65;16.50;;;;;;;;;;6269300;28;20051;-62
2022/12/01 10:35:20;;;;;;;50.33;15.90;;;;;;;;;;6269244;28;20469;-61
2022/12/01 10:38:25;;;;;;;47.47;15.10;;;;;;;;;;6267582;28;20145;-61
2022/12/01 10:41:29;;;;;;;40.10;14.75;;;;;;;;;;6269458;28;20060;-62
2022/12/01 10:44:31;;;;;;;47.17;14.85;;;;;;;;;;6268109;28;20060;-62
2022/12/01 10:47:32;;;;;;;43.90;15.02;;;;;;;;;;6269301;28;20048;-62
2022/12/01 10:50:33;;;;;;;45.40;15.82;;;;;;;;;;6262770;28;20049;-62
2022/12/01 10:53:35;;;;;;;46.65;15.43;;;;;;;;;;6264707;28;20056;-63
2022/12/01 10:56:39;;;;;;;58.10;18.80;;;;;;;;;;6268299;28;20045;-61
2022/12/01 10:59:54;;;;;;;49.70;16.48;;;;;;;;;;6269037;28;20075;-61
2022/12/01 11:02:55;;;;;;;49.80;16.77;;;;;;;;;;6266402;28;20122;-63
2022/12/01 11:05:58;;;;;;;56.58;18.48;;;;;;;;;;6267433;28;20052;-61
2022/12/01 11:09:02;;;;;;;54.63;18.33;;;;;;;;;;6250843;28;20037;-61
2022/12/01 11:12:03;;;;;;;55.70;20.17;;;;;;;;;;6268489;28;20136;-62
2022/12/01 11:15:05;;;;;;;55.58;18.13;;;;;;;;;;6267303;28;20508;-61
2022/12/01 11:18:19;;;;;;;60.58;19.52;;;;;;;;;;6268199;28;20440;-62
2022/12/01 11:21:26;;;;;;;56.33;18.25;;;;;;;;;;6267655;28;20061;-61
2022/12/01 11:24:42;;;;;;;52.10;16.88;;;;;;;;;;6268600;28;20559;-61
2022/12/01 11:27:56;;;;;;;59.85;19.58;;;;;;;;;;6267517;28;20040;-62
2022/12/01 11:31:00;;;;;;;62.67;20.27;;;;;;;;;;6267485;28;20041;-61
2022/12/01 11:34:01;;;;;;;59.58;19.27;;;;;;;;;;6268572;28;20052;-61
2022/12/01 11:37:05;;;;;;;56.45;20.30;;;;;;;;;;6267930;28;20047;-62
2022/12/01 11:40:44;;;;;;;69.53;21.35;;;;;;;;;;6266987;28;20119;-61
2022/12/01 11:43:45;;;;;;;53.17;17.25;;;;;;;;;;6267970;28;20144;-63
2022/12/01 11:46:46;;;;;;;58.65;18.10;;;;;;;;;;6267823;28;20048;-62
2022/12/01 11:49:53;;;;;;;63.05;17.30;;;;;;;;;;6256677;28;20037;-61
2022/12/01 11:52:54;;;;;;;61.47;19.33;;;;;;;;;;6248134;28;20056;-62
2022/12/01 11:56:17;;;;;;;61.70;19.60;;;;;;;;;;6251282;28;20042;-62
2022/12/01 11:59:22;;;;;;;54.47;19.20;;;;;;;;;;6249581;28;20055;-62
2022/12/01 12:02:39;;;;;;;46.67;14.70;;;;;;;;;;6248799;28;20076;-63
2022/12/01 12:05:47;;;;;;;47.28;17.27;;;;;;;;;;6250034;28;20055;-61
2022/12/01 12:09:10;;;;;;;55.47;20.25;;;;;;;;;;6250232;28;20053;-62
2022/12/01 12:12:10;;;;;;;;;;;;;;;;;;6250282;28;20057;-62
2022/12/01 12:15:28;;;;;;;51.35;17.83;;;;;;;;;;6249529;28;20394;-61
2022/12/01 12:18:34;;;;;;;60.17;20.23;;;;;;;;;;6241339;28;20055;-61
2022/12/01 12:21:48;;;;;;;64.45;23.85;;;;;;;;;;6247958;28;20484;-61
2022/12/01 12:25:17;;;;;;;63.35;21.55;;;;;;;;;;6249587;28;20510;-61
2022/12/01 12:28:27;;;;;;;67.57;22.40;;;;;;;;;;6246230;28;20132;-61
2022/12/01 12:32:12;;;;;;;61.85;21.55;;;;;;;;;;6247588;28;20435;-61
2022/12/01 12:35:24;;;;;;;59.05;19.75;;;;;;;;;;6209203;28;20681;-61
2022/12/01 12:38:43;;;;;;;88.43;24.75;;;;;;;;;;6247580;28;20470;-61
2022/12/01 12:41:47;;;;;;;60.40;21.55;;;;;;;;;;6247686;28;20040;-61
2022/12/01 12:44:52;;;;;;;64.88;23.85;;;;;;;;;;6248294;28;20079;-61
2022/12/01 12:48:01;;;;;;;46.97;17.67;;;;;;;;;;6249943;28;20774;-61
2022/12/01 12:51:23;;;;;;;52.45;17.40;;;;;;;;;;6247439;28;20049;-62
2022/12/01 12:54:30;;;;;;;56.08;17.17;;;;;;;;;;6242392;28;20053;-61
2022/12/01 12:57:35;;;;;;;50.78;18.45;;;;;;;;;;6248594;28;20047;-61
2022/12/01 13:00:42;;;;;;;52.83;17.73;;;;;;;;;;6248711;28;20049;-62
2022/12/01 13:04:02;;;;;;;50.83;18.10;;;;;;;;;;6248654;28;20049;-61
2022/12/01 13:07:09;;;;;;;54.22;19.10;;;;;;;;;;6246291;28;20366;-62
2022/12/01 13:10:24;;;;;;;61.20;21.73;;;;;;;;;;6248531;28;20055;-62
2022/12/01 13:13:31;;;;;;;60.25;20.27;;;;;;;;;;6256498;28;20056;-61
2022/12/01 13:16:38;;;;;;;54.90;18.52;;;;;;;;;;6263249;28;20593;-62
2022/12/01 13:19:41;;;;;;;60.85;20.45;;;;;;;;;;6254140;28;20524;-61
2022/12/01 13:22:42;;;;;;;43.78;15.95;;;;;;;;;;6251959;28;20045;-62
2022/12/01 13:25:47;;;;;;;51.13;18.10;;;;;;;;;;6253289;28;20621;-62
2022/12/01 13:28:52;;;;;;;63.22;20.17;;;;;;;;;;6255504;28;20055;-61
2022/12/01 13:31:53;;;;;;;56.58;19.23;;;;;;;;;;6252921;28;20304;-62
2022/12/01 13:34:55;;;;;;;48.95;19.42;;;;;;;;;;6248257;28;20099;-62
2022/12/01 13:38:23;;;;;;;45.50;17.33;;;;;;;;;;6256453;28;20273;-62
2022/12/01 13:41:32;;;;;;;48.13;17.50;;;;;;;;;;6253917;28;20484;-61
2022/12/01 13:44:41;;;;;;;54.63;18.60;;;;;;;;;;6254859;28;20046;-61
2022/12/01 13:47:53;;;;;;;41.58;15.20;;;;;;;;;;6262348;28;20102;-61
2022/12/01 13:50:59;;;;;;;45.58;16.40;;;;;;;;;;6259200;28;20134;-62
2022/12/01 13:54:27;;;;;;;47.92;16.75;;;;;;;;;;6251662;28;20122;-61
2022/12/01 13:57:30;;;;;;;43.80;16.25;;;;;;;;;;6257609;28;20642;-61
2022/12/01 14:00:33;;;;;;;48.47;17.35;;;;;;;;;;6263314;28;20052;-64
2022/12/01 14:03:39;;;;;;;47.78;17.33;;;;;;;;;;6265978;28;20053;-62
2022/12/01 14:07:09;;;;;;;53.17;18.55;;;;;;;;;;6263339;28;20053;-61
2022/12/01 14:10:22;;;;;;;52.10;19.75;;;;;;;;;;6270496;28;20047;-63
2022/12/01 14:13:23;;;;;;;55.28;18.83;;;;;;;;;;6269721;28;20148;-61
2022/12/01 14:16:24;;;;;;;66.17;22.47;;;;;;;;;;6266782;28;20088;-62
2022/12/01 14:19:31;;;;;;;54.28;21.05;;;;;;;;;;6270646;28;20059;-62
2022/12/01 14:22:33;;;;;;;65.55;23.83;;;;;;;;;;6269959;28;20059;-61
2022/12/01 14:25:34;;;;;;;52.95;19.90;;;;;;;;;;6267522;28;20040;-62
2022/12/01 14:28:59;;;;;;;54.33;19.70;;;;;;;;;;6270068;28;20446;-61
2022/12/01 14:32:00;;;;;;;59.05;20.02;;;;;;;;;;6265639;28;20041;-62
2022/12/01 14:35:04;;;;;;;56.35;18.55;;;;;;;;;;6267821;28;20085;-62
2022/12/01 14:38:06;;;;;;;47.38;17.42;;;;;;;;;;6267431;28;20048;-67
2022/12/01 14:41:09;;;;;;;55.90;19.55;;;;;;;;;;6267678;28;20037;-62
2022/12/01 14:44:34;;;;;;;63.88;21.80;;;;;;;;;;6257336;28;20045;-61
2022/12/01 14:48:02;;;;;;;61.13;20.25;;;;;;;;;;6257294;28;20122;-62
2022/12/01 14:51:12;;;;;;;61.58;22.20;;;;;;;;;;6253818;28;20052;-67
2022/12/01 14:54:22;;;;;;;56.05;20.05;;;;;;;;;;6257822;28;20817;-61
2022/12/01 14:58:04;;;;;;;58.55;21.42;;;;;;;;;;6257396;28;20078;-62
2022/12/01 15:01:11;;;;;;;50.88;19.05;;;;;;;;;;6249013;28;20104;-62
2022/12/01 15:04:12;;;;;;;56.17;19.45;;;;;;;;;;6255930;28;20446;-61
2022/12/01 15:07:12;;;;;;;63.10;23.05;;;;;;;;;;6259145;28;20103;-61
2022/12/01 15:10:21;;;;;;;65.57;23.35;;;;;;;;;;6258756;28;20164;-62
2022/12/01 15:13:30;;;;;;;66.43;22.98;;;;;;;;;;6259567;28;20047;-62
2022/12/01 15:16:38;;;;;;;59.67;20.58;;;;;;;;;;6256392;28;20053;-62
2022/12/01 15:19:40;;;;;;;58.67;20.00;;;;;;;;;;6259623;28;20264;-62
2022/12/01 15:22:41;;;;;;;66.03;22.75;;;;;;;;;;6261542;28;20040;-62
2022/12/01 15:25:44;;;;;;;72.85;24.35;;;;;;;;;;6259231;28;20076;-62
2022/12/01 15:28:45;;;;;;;59.88;22.90;;;;;;;;;;6263797;28;20097;-61
2022/12/01 15:31:49;;;;;;;44.22;16.75;;;;;;;;;;6256737;28;20056;-61
2022/12/01 15:34:52;;;;;;;52.20;17.92;;;;;;;;;;6259905;28;20093;-62
2022/12/01 15:37:54;;;;;;;62.90;20.90;;;;;;;;;;6256009;28;20053;-61
2022/12/01 15:40:56;;;;;;;60.15;21.75;;;;;;;;;;6257482;28;20426;-62
2022/12/01 15:44:00;;;;;;;59.00;21.42;;;;;;;;;;6255709;28;20044;-62
2022/12/01 15:47:39;;;;;;;59.47;20.92;;;;;;;;;;6254022;28;20053;-63
2022/12/01 15:50:42;;;;;;;55.72;20.23;;;;;;;;;;6256716;28;20471;-61
2022/12/01 15:53:52;;;;;;;69.30;23.23;;;;;;;;;;6256842;28;20059;-59
2022/12/01 15:56:54;;;;;;;60.00;20.17;;;;;;;;;;6254534;28;20045;-63
2022/12/01 15:59:56;;;;;;;;;;;;;;;;;;6258515;28;20049;-61
2022/12/01 16:02:58;;;;;;;70.18;26.40;;;;;;;;;;6258992;28;19932;-62
2022/12/01 16:05:58;;;;;;;62.15;22.70;;;;;;;;;;6256131;28;20869;-62
2022/12/01 16:09:03;;;;;;;60.60;20.63;;;;;;;;;;6256768;28;20070;-61
2022/12/01 16:12:22;;;;;;;59.95;21.25;;;;;;;;;;6259191;28;20041;-61
2022/12/01 16:15:22;;;;;;;65.57;23.77;;;;;;;;;;6256803;28;20076;-62
2022/12/01 16:18:31;;;;;;;53.92;19.83;;;;;;;;;;6256794;28;20044;-62
2022/12/01 16:21:45;;;;;;;61.58;22.42;;;;;;;;;;6256020;28;20063;-62
2022/12/01 16:24:53;;;;;;;55.20;17.92;;;;;;;;;;6257441;28;20044;-61
2022/12/01 16:27:55;;;;;;;59.28;18.08;;;;;;;;;;6256412;28;20056;-61
2022/12/01 16:30:56;;;;;;;55.03;18.17;;;;;;;;;;6258107;28;20052;-65
2022/12/01 16:34:01;;;;;;;69.38;21.23;;;;;;;;;;6260134;28;20515;-62
2022/12/01 16:37:02;;;;;;;51.58;19.65;;;;;;;;;;6255145;28;20044;-63
2022/12/01 16:40:04;;;;;;;56.05;20.85;;;;;;;;;;6252462;28;20581;-61
2022/12/01 16:43:08;;;;;;;;;;;;;;;;;;6257864;28;20052;-62
2022/12/01 16:46:12;;;;;;;68.93;22.05;;;;;;;;;;6254215;28;20489;-61
2022/12/01 16:49:12;;;;;;;64.05;21.50;;;;;;;;;;6257364;28;20064;-62
2022/12/01 16:52:13;;;;;;;58.22;20.40;;;;;;;;;;6256559;28;20044;-62
2022/12/01 16:55:25;;;;;;;52.45;19.38;;;;;;;;;;6256308;28;20041;-61
2022/12/01 16:58:26;;;;;;;66.25;22.48;;;;;;;;;;6255714;28;20063;-62
2022/12/01 17:01:28;;;;;;;58.60;21.33;;;;;;;;;;6256177;28;20396;-61
2022/12/01 17:04:28;;;;;;;60.05;21.38;;;;;;;;;;6259432;28;20055;-61
2022/12/01 17:07:29;;;;;;;56.35;19.50;;;;;;;;;;6255343;28;20419;-61
2022/12/01 17:10:29;;;;;;;59.97;20.58;;;;;;;;;;6262785;28;20105;-62
2022/12/01 17:13:30;;;;;;;76.82;26.52;;;;;;;;;;6263802;28;20053;-67
2022/12/01 17:16:31;;;;;;;57.38;19.60;;;;;;;;;;6264008;28;20487;-61
2022/12/01 17:19:31;;;;;;;49.65;18.55;;;;;;;;;;6265064;28;20084;-62
2022/12/01 17:22:32;;;;;;;57.33;20.17;;;;;;;;;;6264004;28;20052;-62
2022/12/01 17:25:33;;;;;;;57.97;22.52;;;;;;;;;;6265297;28;20045;-61
2022/12/01 17:28:34;;;;;;;58.60;21.27;;;;;;;;;;6263592;28;20041;-64
2022/12/01 17:31:35;;;;;;;54.77;21.70;;;;;;;;;;6261870;28;20045;-62
2022/12/01 17:34:35;;;;;;;57.03;20.77;;;;;;;;;;6258692;28;20671;-62
2022/12/01 17:37:36;;;;;;;59.45;21.85;;;;;;;;;;6255509;28;20105;-61
2022/12/01 17:40:37;;;;;;;78.47;26.02;;;;;;;;;;6252449;28;20411;-61
2022/12/01 17:43:39;;;;;;;69.18;24.52;;;;;;;;;;6259612;28;20492;-62
2022/12/01 17:46:40;;;;;;;67.17;23.87;;;;;;;;;;6262221;28;20045;-62
2022/12/01 17:49:41;;;;;;;66.90;23.13;;;;;;;;;;6263284;28;20052;-67
2022/12/01 17:52:41;;;;;;;57.83;22.55;;;;;;;;;;6263357;28;20051;-63
2022/12/01 17:55:42;;;;;;;67.80;22.23;;;;;;;;;;6263148;28;20521;-60
2022/12/01 17:58:43;;;;;;;58.58;18.92;;;;;;;;;;6264597;28;20052;-63
2022/12/01 18:01:44;;;;;;;64.50;20.40;;;;;;;;;;6269000;28;20715;-61
2022/12/01 18:04:45;;;;;;;60.25;18.85;;;;;;;;;;6272618;28;20040;-69